M I D A S
Marine Information and Data Acquisition System
Tripno 1287 of the Zeeleeuw from 2007-06-15 06:48:23 to 2007-06-15 14:46:10
Back to CruiseResearch ActivitiesStationsMapUnderway DataData graphs

EquipmentUnitsComment
TimeDGPSUTC
LatitudeDGPSDM.mWGS84
LongitudeDGPSDM.mWGS84
HeadingGyrodeg 
SOGDGPSknotsSpeed over ground
COGDGPSdegCourse over ground
DepthEcho soundermeters200 kHz
Missing or incorrect values are displayed as -999
Navigation data collected by the RV Zeeleeuw from 2007-06-15 06:51:28 to 2007-06-15 14:56:51
Time Latitude Longitude Heading SOG COG Depth
2007-06-15 06:52:33 51°13.612 2°56.035 115.1 3.9 292 -999
2007-06-15 06:53:33 51°13.653 2°55.92 124.8 5.4 303 -999
2007-06-15 06:54:33 51°13.685 2°55.822 108.8 3.2 290 9.6
2007-06-15 06:55:33 51°13.695 2°55.759 90.6 1.9 279 10.3
2007-06-15 06:56:33 51°13.696 2°55.718 75.6 1 266 11.1
2007-06-15 06:57:33 51°13.703 2°55.717 40.6 1.3 24 12.7
2007-06-15 06:58:33 51°13.756 2°55.697 336.3 4.8 332 10
2007-06-15 06:59:33 51°13.863 2°55.613 338.5 6.2 335 9.8
2007-06-15 07:00:33 51°14.004 2°55.509 340.9 9.7 337 9.9
2007-06-15 07:01:33 51°14.152 2°55.397 337.5 9.9 331 9.9
2007-06-15 07:02:33 51°14.282 2°55.232 319.3 10.8 313 9.8
2007-06-15 07:03:33 51°14.406 2°54.998 316.4 12.3 315 9.6
2007-06-15 07:04:33 51°14.565 2°54.777 330.8 12.6 324 8
2007-06-15 07:05:33 51°14.73 2°54.56 328.2 13 322 8.3
2007-06-15 07:06:33 51°14.91 2°54.38 337.9 12.7 328 7.7
2007-06-15 07:07:33 51°15.077 2°54.188 331 12.3 325 7.5
2007-06-15 07:08:33 51°15.261 2°54.037 342.1 12.6 332 7.7
2007-06-15 07:09:33 51°15.445 2°53.868 339.6 12.7 330 8.6
2007-06-15 07:10:33 51°15.629 2°53.699 340.2 12.8 330 9.2
2007-06-15 07:11:33 51°15.812 2°53.533 339.5 12.6 332 9.6
2007-06-15 07:12:33 51°15.993 2°53.367 339.7 12.5 330 10.3
2007-06-15 07:13:33 51°16.173 2°53.204 341.4 12.5 331 10.4
2007-06-15 07:14:33 51°16.359 2°53.059 344.2 12.4 335 10.6
2007-06-15 07:15:33 51°16.549 2°52.922 343.6 12.4 336 10.3
2007-06-15 07:16:33 51°16.738 2°52.797 348.3 12.2 340 9.4
2007-06-15 07:17:33 51°16.926 2°52.69 347.5 11.9 340 8.3
2007-06-15 07:18:33 51°17.116 2°52.583 349.1 11.9 341 8.4
2007-06-15 07:19:33 51°17.311 2°52.535 4.2 11.7 357 9.2
2007-06-15 07:20:33 51°17.508 2°52.508 3 11.9 355 9.2
2007-06-15 07:21:33 51°17.705 2°52.479 2.9 11.9 354 9.2
2007-06-15 07:22:33 51°17.901 2°52.451 2.7 11.8 356 9.5
2007-06-15 07:23:33 51°18.099 2°52.443 6.5 11.8 2 9.6
2007-06-15 07:24:33 51°18.26 2°52.595 46.5 11.6 44 10
2007-06-15 07:25:33 51°18.405 2°52.804 44.5 11.8 40 9.8
2007-06-15 07:26:33 51°18.558 2°52.992 41.3 11.5 34 10.1
2007-06-15 07:27:33 51°18.723 2°53.152 38.3 11.4 32 10.8
2007-06-15 07:28:33 51°18.884 2°53.322 39.3 11.7 34 10.8
2007-06-15 07:29:33 51°19.049 2°53.484 37.9 11.6 32 10.9
2007-06-15 07:30:33 51°19.217 2°53.638 33.9 11.7 29 11.2
2007-06-15 07:31:33 51°19.39 2°53.777 33.5 11.7 27 11.4
2007-06-15 07:32:33 51°19.563 2°53.918 34.2 11.6 26 11.7
2007-06-15 07:33:33 51°19.734 2°54.057 32.7 11.5 25 12.1
2007-06-15 07:34:33 51°19.908 2°54.196 33.3 11.7 27 12.3
2007-06-15 07:35:33 51°20.079 2°54.337 33.8 11.6 28 13.3
2007-06-15 07:36:33 51°20.248 2°54.478 33.5 10 29 13.5
2007-06-15 07:37:33 51°20.371 2°54.58 31.9 7.1 24 13.9
2007-06-15 07:38:33 51°20.446 2°54.623 21.3 3.2 9 14.3
2007-06-15 07:39:33 51°20.483 2°54.615 2.6 1.6 334 14.4
2007-06-15 07:40:33 51°20.5 2°54.593 349.3 1.2 308 14.6
2007-06-15 07:41:33 51°20.507 2°54.57 336 0.9 280 14.7
2007-06-15 07:42:33 51°20.515 2°54.543 339 2 315 14.8
2007-06-15 07:43:33 51°20.557 2°54.552 46.1 3.3 55 14.9
2007-06-15 07:44:33 51°20.564 2°54.658 86.2 4.3 96 14.7
2007-06-15 07:45:33 51°20.553 2°54.768 93.2 3.8 103 14.6
2007-06-15 07:46:33 51°20.53 2°54.846 106.9 3 128 14.3
2007-06-15 07:47:33 51°20.5 2°54.896 119.6 2.4 139 14.1
2007-06-15 07:48:33 51°20.476 2°54.949 94.6 2.5 104 14
2007-06-15 07:49:33 51°20.497 2°55.002 35.2 3.1 30 13.7
2007-06-15 07:50:33 51°20.551 2°55.041 32.6 3.6 27 14.1
2007-06-15 07:51:33 51°20.592 2°55.106 53.6 3.4 58 14.1
2007-06-15 07:52:33 51°20.628 2°55.172 41.3 3.1 37 14.1
2007-06-15 07:53:33 51°20.668 2°55.231 48.6 3.3 51 14
2007-06-15 07:54:33 51°20.699 2°55.304 55.5 3.3 56 14.1
2007-06-15 07:55:33 51°20.728 2°55.382 55.1 3.4 56 14
2007-06-15 07:56:33 51°20.763 2°55.452 47.6 3.3 49 14
2007-06-15 07:57:33 51°20.798 2°55.52 54.2 3.4 61 14.1
2007-06-15 07:58:33 51°20.818 2°55.606 69.9 3.5 77 13.9
2007-06-15 07:59:33 51°20.835 2°55.692 62.3 3.3 64 13.9
2007-06-15 08:00:33 51°20.864 2°55.762 48.6 3.1 49 13.8
2007-06-15 08:01:33 51°20.895 2°55.826 57.5 3.1 63 13.9
2007-06-15 08:02:33 51°20.921 2°55.897 55.8 3.1 57 13.8
2007-06-15 08:03:33 51°20.947 2°55.969 56.6 3.1 58 13.8
2007-06-15 08:04:33 51°20.974 2°56.042 56.9 3.2 63 13.8
2007-06-15 08:05:33 51°20.999 2°56.117 59.8 3.3 66 13.6
2007-06-15 08:06:33 51°21.023 2°56.193 57.8 3.2 62 13.7
2007-06-15 08:07:33 51°21.051 2°56.262 53.2 3.2 60 13.7
2007-06-15 08:08:33 51°21.081 2°56.332 55.9 3.1 56 13.7
2007-06-15 08:09:33 51°21.105 2°56.407 58.7 3.2 61 13.7
2007-06-15 08:10:33 51°21.132 2°56.478 54.7 3.1 57 13.7
2007-06-15 08:11:33 51°21.162 2°56.544 51.5 3.1 56 13.5
2007-06-15 08:12:33 51°21.196 2°56.604 48.1 3.1 47 13.8
2007-06-15 08:13:33 51°21.225 2°56.669 59.7 3.1 68 13.6
2007-06-15 08:14:33 51°21.238 2°56.749 70.7 3.1 75 13.7
2007-06-15 08:15:33 51°21.249 2°56.83 74.4 3.1 85 13.6
2007-06-15 08:16:33 51°21.232 2°56.911 110.9 3.3 128 13.5
2007-06-15 08:17:33 51°21.192 2°56.955 136 2.5 160 13.2
2007-06-15 08:18:33 51°21.159 2°56.975 144.8 1.9 169 13.1
2007-06-15 08:19:33 51°21.132 2°56.982 154.2 1.5 171 13.2
2007-06-15 08:20:33 51°21.11 2°56.985 158.4 1.5 170 13.1
2007-06-15 08:21:33 51°21.068 2°56.994 164.4 3.2 173 13
2007-06-15 08:22:33 51°21.004 2°57.006 168.6 4.2 174 12.9
2007-06-15 08:23:33 51°20.934 2°57.012 172.2 4 175 12.4
2007-06-15 08:24:33 51°20.871 2°57.012 178.2 3.4 184 12.5
2007-06-15 08:25:33 51°20.822 2°57.005 183.7 2.8 186 12.5
2007-06-15 08:26:33 51°20.779 2°56.99 196.5 2.5 201 12.4
2007-06-15 08:27:33 51°20.744 2°56.975 199.7 2.2 195 12.4
2007-06-15 08:28:33 51°20.702 2°56.941 219.6 3.2 216 12.5
2007-06-15 08:29:33 51°20.657 2°56.884 228.3 3.4 228 12.4
2007-06-15 08:30:33 51°20.619 2°56.819 236.6 3.3 228 12.4
2007-06-15 08:31:33 51°20.58 2°56.754 232.9 3.4 220 12.2
2007-06-15 08:32:33 51°20.539 2°56.691 232 3.3 227 12.4
2007-06-15 08:33:33 51°20.503 2°56.625 242.2 3.3 232 12.2
2007-06-15 08:34:33 51°20.473 2°56.551 250.5 3.3 239 12.3
2007-06-15 08:35:33 51°20.443 2°56.473 247.2 3.5 235 12.3
2007-06-15 08:36:33 51°20.409 2°56.399 240.2 3.5 229 12.4
2007-06-15 08:37:33 51°20.372 2°56.331 234.4 3.3 225 12.2
2007-06-15 08:38:33 51°20.333 2°56.273 225.8 3.1 216 12.2
2007-06-15 08:39:33 51°20.293 2°56.224 223 2.9 215 12.3
2007-06-15 08:40:33 51°20.255 2°56.181 228.1 2.6 223 12.3
2007-06-15 08:41:33 51°20.224 2°56.133 241.6 2.7 229 12.4
2007-06-15 08:42:33 51°20.199 2°56.076 253.4 2.4 243 12.2
2007-06-15 08:43:33 51°20.181 2°56.015 261.7 2.7 251 12.3
2007-06-15 08:44:33 51°20.165 2°55.944 263.3 2.9 257 12.4
2007-06-15 08:45:33 51°20.147 2°55.87 260.8 3.1 241 12.3
2007-06-15 08:46:33 51°20.127 2°55.796 258.8 3 244 12.6
2007-06-15 08:47:33 51°20.106 2°55.722 257.3 3 244 12.5
2007-06-15 08:48:33 51°20.085 2°55.651 257.3 3 242 12.5
2007-06-15 08:49:33 51°20.062 2°55.579 255.3 3 243 12.5
2007-06-15 08:50:33 51°20.039 2°55.508 253.3 3 240 12.5
2007-06-15 08:51:33 51°20.014 2°55.437 250.3 3.1 245 12.8
2007-06-15 08:52:33 51°19.985 2°55.367 248 3.2 238 12.5
2007-06-15 08:53:33 51°19.96 2°55.295 261.5 3 246 12.5
2007-06-15 08:54:33 51°19.944 2°55.22 269.6 2.9 256 12.6
2007-06-15 08:55:33 51°19.942 2°55.149 298.7 2.4 278 12.7
2007-06-15 08:56:33 51°19.958 2°55.092 327.2 2.6 305 12.7
2007-06-15 08:57:33 51°19.998 2°55.024 326.6 4.2 314 12.8
2007-06-15 08:58:33 51°20.049 2°54.925 320.8 5.2 308 13.1
2007-06-15 08:59:33 51°20.103 2°54.812 318.3 5.5 306 13.4
2007-06-15 09:00:33 51°20.148 2°54.705 312.8 3.8 297 13.7
2007-06-15 09:01:33 51°20.159 2°54.652 302.4 1.3 278 13.9
2007-06-15 09:02:33 51°20.158 2°54.627 295.7 0.6 282 14.2
2007-06-15 09:03:33 51°20.155 2°54.613 304 0.3 266 14.1
2007-06-15 09:04:33 51°20.151 2°54.606 315.9 0.3 199 13.9
2007-06-15 09:05:33 51°20.156 2°54.594 338.8 1.8 322 13.9
2007-06-15 09:06:33 51°20.207 2°54.593 26.5 4.4 29 14.3
2007-06-15 09:07:33 51°20.223 2°54.723 99.7 6.3 118 13.9
2007-06-15 09:08:33 51°20.127 2°54.808 171.4 7.5 182 13.5
2007-06-15 09:09:33 51°20.018 2°54.707 230 8.9 225 13.6
2007-06-15 09:10:33 51°19.884 2°54.498 230.4 12.3 224 13.3
2007-06-15 09:11:33 51°19.748 2°54.25 233.7 12.6 230 12.8
2007-06-15 09:12:33 51°19.614 2°53.997 235.9 12.7 224 12.6
2007-06-15 09:13:33 51°19.48 2°53.744 235 12.6 229 12.7
2007-06-15 09:14:33 51°19.346 2°53.492 234.4 12.4 228 12.8
2007-06-15 09:15:33 51°19.211 2°53.24 234.4 12.6 229 12.6
2007-06-15 09:16:33 51°19.077 2°52.988 234.8 12.5 228 12.5
2007-06-15 09:17:33 51°18.954 2°52.724 246.9 12.4 240 12.3
2007-06-15 09:18:33 51°18.928 2°52.412 282.8 11.9 276 12.9
2007-06-15 09:19:33 51°18.962 2°52.104 288.9 11.7 278 13.9
2007-06-15 09:20:33 51°18.976 2°51.789 280.8 12 273 14.4
2007-06-15 09:21:33 51°18.982 2°51.553 286.7 5.8 281 15.3
2007-06-15 09:22:33 51°19.017 2°51.476 347.8 2.6 341 15.1
2007-06-15 09:23:33 51°19.05 2°51.506 59.6 2.8 72 15.7
2007-06-15 09:24:33 51°19.021 2°51.579 139.3 4.1 152 15.4
2007-06-15 09:25:33 51°18.959 2°51.611 162.9 3.6 170 14.8
2007-06-15 09:26:33 51°18.904 2°51.621 173.1 3.1 174 14.8
2007-06-15 09:27:33 51°18.855 2°51.623 181.4 2.8 181 14.7
2007-06-15 09:28:33 51°18.809 2°51.622 184.1 2.7 177 14.4
2007-06-15 09:29:33 51°18.762 2°51.625 178.4 2.9 173 14.3
2007-06-15 09:30:34 51°18.709 2°51.62 193.9 3.2 188 14.2
2007-06-15 09:31:34 51°18.662 2°51.593 218.3 2.9 209 14.1
2007-06-15 09:32:34 51°18.628 2°51.543 249.5 2.9 231 14
2007-06-15 09:33:34 51°18.599 2°51.475 245.3 3.3 230 14
2007-06-15 09:34:36 51°18.56 2°51.405 237.1 3.5 220 14.1
2007-06-15 09:35:36 51°18.519 2°51.344 232.9 3.4 218 14.1
2007-06-15 09:36:36 51°18.48 2°51.285 238.5 3.2 225 14
2007-06-15 09:37:36 51°18.448 2°51.22 246.8 3.1 240 14
2007-06-15 09:38:37 51°18.419 2°51.15 254 3.2 238 13.8
2007-06-15 09:39:36 51°18.396 2°51.078 260.1 3 246 13.9
2007-06-15 09:40:37 51°18.379 2°51.001 265.5 3 251 14
2007-06-15 09:41:36 51°18.365 2°50.928 263.4 2.8 252 14.1
2007-06-15 09:42:37 51°18.343 2°50.856 252.3 3 242 14.2
2007-06-15 09:43:36 51°18.315 2°50.79 244.7 3.1 230 14.3
2007-06-15 09:44:37 51°18.281 2°50.724 241.7 3.1 230 14.4
2007-06-15 09:45:37 51°18.246 2°50.66 241.5 3.3 234 14.1
2007-06-15 09:46:37 51°18.216 2°50.591 251 3.2 237 14.2
2007-06-15 09:47:37 51°18.196 2°50.516 264.1 3 251 14.2
2007-06-15 09:48:36 51°18.182 2°50.44 265.7 3 253 14.6
2007-06-15 09:49:37 51°18.165 2°50.364 261.4 3.1 242 14.6
2007-06-15 09:50:36 51°18.147 2°50.292 256.4 3 250 14.7
2007-06-15 09:51:37 51°18.124 2°50.219 256.5 3 245 14.7
2007-06-15 09:52:36 51°18.114 2°50.148 282.2 2.6 273 14.5
2007-06-15 09:53:36 51°18.13 2°50.079 305.6 3.1 299 14.8
2007-06-15 09:54:37 51°18.154 2°49.996 298 3.5 291 14.9
2007-06-15 09:55:36 51°18.167 2°49.908 284.2 3.4 278 14.8
2007-06-15 09:56:37 51°18.185 2°49.82 302.3 3.5 300 14.7
2007-06-15 09:57:36 51°18.222 2°49.754 323.6 3.4 323 14.4
2007-06-15 09:58:37 51°18.27 2°49.702 326.5 3.4 327 14.2
2007-06-15 09:59:36 51°18.314 2°49.657 336 3.1 338 14
2007-06-15 10:00:37 51°18.365 2°49.659 14.2 2.9 22 14.4
2007-06-15 10:01:36 51°18.385 2°49.719 72.4 2.3 84 14.2
2007-06-15 10:02:37 51°18.384 2°49.774 84.2 1.9 95 14.4
2007-06-15 10:03:37 51°18.38 2°49.82 90.1 1.7 108 14.6
2007-06-15 10:04:37 51°18.375 2°49.861 92.9 1.5 100 14.8
2007-06-15 10:05:37 51°18.367 2°49.908 106.1 2.4 107 14.9
2007-06-15 10:06:36 51°18.345 2°49.984 117.6 3.7 118 15.4
2007-06-15 10:07:37 51°18.309 2°50.073 125.9 3.8 123 15.4
2007-06-15 10:08:36 51°18.273 2°50.144 134.1 3.2 131 15.5
2007-06-15 10:09:37 51°18.236 2°50.198 142.7 2.8 143 15.4
2007-06-15 10:10:37 51°18.202 2°50.244 148.5 2.6 139 15.4
2007-06-15 10:11:36 51°18.171 2°50.296 129.8 3 124 15.4
2007-06-15 10:12:37 51°18.152 2°50.374 100.4 3.2 97 15.1
2007-06-15 10:13:36 51°18.152 2°50.46 79.8 3.4 82 15.1
2007-06-15 10:14:37 51°18.156 2°50.555 80.6 3.4 80 14.6
2007-06-15 10:15:36 51°18.168 2°50.636 61.6 3 68 14.9
2007-06-15 10:16:37 51°18.192 2°50.705 50.7 2.9 60 14.8
2007-06-15 10:17:36 51°18.212 2°50.776 58 3 67 14.8
2007-06-15 10:18:37 51°18.233 2°50.853 55.8 3 67 14.6
2007-06-15 10:19:37 51°18.259 2°50.917 42.1 3 54 14.6
2007-06-15 10:20:37 51°18.291 2°50.98 41.1 3.1 52 14.9
2007-06-15 10:21:37 51°18.325 2°51.049 44.8 3.5 58 14.7
2007-06-15 10:22:37 51°18.357 2°51.123 47.1 3.4 50 14.9
2007-06-15 10:23:37 51°18.393 2°51.195 41 3.3 50 15.1
2007-06-15 10:24:36 51°18.429 2°51.26 37.4 3.3 46 15
2007-06-15 10:25:37 51°18.469 2°51.326 39.6 3.5 51 15
2007-06-15 10:26:37 51°18.506 2°51.399 43.3 3.6 54 15.1
2007-06-15 10:27:37 51°18.537 2°51.482 57.2 3.5 64 15
2007-06-15 10:28:37 51°18.56 2°51.567 61.9 3.4 67 15.1
2007-06-15 10:29:36 51°18.582 2°51.647 57.8 3.3 62 15
2007-06-15 10:30:37 51°18.608 2°51.72 45.1 3 54 14.9
2007-06-15 10:31:36 51°18.639 2°51.778 31.4 2.9 47 15
2007-06-15 10:32:37 51°18.676 2°51.823 17.4 2.6 33 15.1
2007-06-15 10:33:36 51°18.708 2°51.873 38.6 3 51 15
2007-06-15 10:34:37 51°18.744 2°51.936 34.8 3.2 45 15.3
2007-06-15 10:35:36 51°18.784 2°51.995 29.3 3.3 39 15.2
2007-06-15 10:36:37 51°18.829 2°52.049 23.7 3.4 34 15.3
2007-06-15 10:37:37 51°18.876 2°52.1 20.7 3.4 32 15.4
2007-06-15 10:38:37 51°18.925 2°52.147 18.2 3.4 31 15.6
2007-06-15 10:39:37 51°18.973 2°52.201 25.3 3.6 37 15.6
2007-06-15 10:40:37 51°19.015 2°52.271 44.8 3.8 55 15.6
2007-06-15 10:41:37 51°19.046 2°52.362 66.1 3.8 69 15.6
2007-06-15 10:42:37 51°19.058 2°52.454 85.8 3.3 83 15.6
2007-06-15 10:43:37 51°19.058 2°52.535 102.6 2.9 93 15.4
2007-06-15 10:44:37 51°19.05 2°52.605 126.9 2.6 104 15.2
2007-06-15 10:45:37 51°19.037 2°52.664 146 2 112 15
2007-06-15 10:46:37 51°19.027 2°52.715 154.1 1.8 107 14.9
2007-06-15 10:47:36 51°19.021 2°52.76 158.6 1.7 103 14.9
2007-06-15 10:48:37 51°18.985 2°52.799 189.3 4.8 170 14.7
2007-06-15 10:49:36 51°18.846 2°52.804 188.4 11.3 179 14.1
2007-06-15 10:50:37 51°18.639 2°52.786 192.9 12 182 13.8
2007-06-15 10:51:36 51°18.437 2°52.759 192.3 12 188 13.6
2007-06-15 10:52:37 51°18.232 2°52.709 197 12 189 13
2007-06-15 10:53:37 51°18.032 2°52.659 196.4 11.9 191 13.1
2007-06-15 10:54:37 51°17.83 2°52.612 196.6 12.2 187 12.6
2007-06-15 10:55:37 51°17.633 2°52.562 196.5 11.9 189 12.9
2007-06-15 10:56:37 51°17.435 2°52.512 196.3 12 190 12.5
2007-06-15 10:57:37 51°17.237 2°52.552 172.6 12.4 156 12.4
2007-06-15 10:58:37 51°17.05 2°52.717 158.4 12.7 149 12.6
2007-06-15 10:59:37 51°16.916 2°52.994 124.9 13.6 114 11.1
2007-06-15 11:00:37 51°16.892 2°53.363 96.7 14.5 85 12
2007-06-15 11:01:37 51°16.944 2°53.711 79.7 13.2 74 13
2007-06-15 11:02:37 51°17.007 2°54.006 70.9 9.2 64 13.2
2007-06-15 11:03:37 51°17.061 2°54.177 68.6 6 63 12.9
2007-06-15 11:04:37 51°17.088 2°54.302 85.9 4.4 71 13.1
2007-06-15 11:05:36 51°17.105 2°54.4 91.5 3.6 72 13
2007-06-15 11:06:37 51°17.122 2°54.487 84.1 3.3 75 12.9
2007-06-15 11:07:36 51°17.143 2°54.564 78.1 3.3 64 12.9
2007-06-15 11:08:37 51°17.166 2°54.641 69.1 3.1 69 12.8
2007-06-15 11:09:36 51°17.192 2°54.711 57 3.2 59 12.5
2007-06-15 11:10:37 51°17.219 2°54.782 51 3.1 58 12.8
2007-06-15 11:11:37 51°17.247 2°54.852 49.3 3.1 57 12.8
2007-06-15 11:12:37 51°17.275 2°54.922 50.5 3.1 59 12.7
2007-06-15 11:13:37 51°17.303 2°54.993 49.6 3.1 58 12.7
2007-06-15 11:14:37 51°17.33 2°55.061 46.7 3.2 59 12.5
2007-06-15 11:15:37 51°17.358 2°55.129 43.8 3.1 53 12.7
2007-06-15 11:16:37 51°17.387 2°55.196 41.2 3.1 56 12.6
2007-06-15 11:17:37 51°17.416 2°55.264 38 3.1 56 12.4
2007-06-15 11:18:37 51°17.446 2°55.331 35.1 3.2 55 12.2
2007-06-15 11:19:37 51°17.478 2°55.398 34.7 3.2 52 11.9
2007-06-15 11:20:37 51°17.51 2°55.466 31.4 3.3 54 11
2007-06-15 11:21:37 51°17.545 2°55.533 28.6 3.4 50 10.2
2007-06-15 11:22:37 51°17.581 2°55.596 25.1 3.2 44 10
2007-06-15 11:23:36 51°17.619 2°55.655 20.2 3.1 39 9.7
2007-06-15 11:24:37 51°17.658 2°55.714 17.5 3.2 40 9.6
2007-06-15 11:25:36 51°17.696 2°55.77 26.6 3.1 42 9.5
2007-06-15 11:26:37 51°17.732 2°55.835 45.9 3.2 51 9.4
2007-06-15 11:27:36 51°17.761 2°55.904 65.6 3.2 56 9.6
2007-06-15 11:28:37 51°17.786 2°55.979 73.2 3.2 61 9.3
2007-06-15 11:29:37 51°17.808 2°56.056 87.2 3.2 64 9.3
2007-06-15 11:30:37 51°17.823 2°56.132 103.2 3 75 9.1
2007-06-15 11:31:37 51°17.837 2°56.207 111.2 2.8 80 9.5
2007-06-15 11:32:37 51°17.847 2°56.282 118.2 2.8 81 9.9
2007-06-15 11:33:37 51°17.854 2°56.354 124.5 2.6 83 10.1
2007-06-15 11:34:37 51°17.862 2°56.429 122.3 2.8 82 11.3
2007-06-15 11:35:37 51°17.872 2°56.512 122.2 3.2 82 11.6
2007-06-15 11:36:37 51°17.878 2°56.6 131.5 3.5 83 11.9
2007-06-15 11:37:37 51°17.874 2°56.682 158 3.1 111 12.1
2007-06-15 11:38:37 51°17.846 2°56.724 206.4 1.5 137 12.4
2007-06-15 11:39:36 51°17.837 2°56.756 210.4 1.5 98 12.5
2007-06-15 11:40:37 51°17.838 2°56.798 206.1 1.9 85 12.5
2007-06-15 11:41:36 51°17.84 2°56.845 200.8 1.6 106 12.6
2007-06-15 11:42:37 51°17.817 2°56.855 222.6 2.2 219 12.7
2007-06-15 11:43:37 51°17.807 2°56.77 263.3 4.1 274 12.6
2007-06-15 11:44:37 51°17.817 2°56.675 265 3 282 12.4
2007-06-15 11:45:37 51°17.837 2°56.607 276.9 3 310 12.2
2007-06-15 11:46:37 51°17.862 2°56.554 264 2 298 11.9
2007-06-15 11:47:37 51°17.855 2°56.504 238.8 2.6 240 -999
2007-06-15 11:48:37 51°17.828 2°56.437 237.5 3.2 240 11.9
2007-06-15 11:49:37 51°17.796 2°56.366 236.6 3.3 235 11.8
2007-06-15 11:50:37 51°17.759 2°56.3 233.1 3.3 220 12
2007-06-15 11:51:37 51°17.725 2°56.232 246.1 3.3 251 12.1
2007-06-15 11:52:37 51°17.698 2°56.155 234.3 3.3 228 12
2007-06-15 11:53:37 51°17.668 2°56.081 241.9 3.4 248 12.1
2007-06-15 11:54:37 51°17.645 2°55.998 241.1 3.5 237 12.1
2007-06-15 11:55:37 51°17.617 2°55.92 240.6 3.4 239 12.1
2007-06-15 11:56:37 51°17.592 2°55.838 243.8 3.5 245 12.2
2007-06-15 11:57:37 51°17.57 2°55.752 245.7 3.5 245 12.1
2007-06-15 11:58:37 51°17.55 2°55.669 242.9 3.2 246 12.3
2007-06-15 11:59:37 51°17.529 2°55.595 243.4 3 245 12.1
2007-06-15 12:00:37 51°17.499 2°55.533 234 3 227 12.4
2007-06-15 12:01:37 51°17.475 2°55.466 240.7 3 247 12.4
2007-06-15 12:02:37 51°17.449 2°55.397 241.1 3 242 12.5
2007-06-15 12:03:37 51°17.423 2°55.329 237.8 3 241 12.6
2007-06-15 12:04:37 51°17.399 2°55.26 242.5 3.1 251 12.8
2007-06-15 12:05:37 51°17.376 2°55.186 242.2 3.1 242 12.9
2007-06-15 12:06:37 51°17.354 2°55.11 242 3.2 248 12.7
2007-06-15 12:07:37 51°17.329 2°55.037 240.9 3.1 241 12.7
2007-06-15 12:08:37 51°17.307 2°54.961 246.6 3.3 251 12.7
2007-06-15 12:09:37 51°17.286 2°54.883 240.5 3.3 246 12.7
2007-06-15 12:10:37 51°17.257 2°54.814 238.2 3.1 239 12.9
2007-06-15 12:11:37 51°17.232 2°54.741 242.4 3.1 243 12.8
2007-06-15 12:12:37 51°17.212 2°54.664 244 3 240 12.9
2007-06-15 12:13:37 51°17.187 2°54.592 240.8 3.1 238 13
2007-06-15 12:14:37 51°17.164 2°54.516 242.3 3.1 248 13.1
2007-06-15 12:15:37 51°17.138 2°54.444 237.3 3.2 234 13.1
2007-06-15 12:16:37 51°17.109 2°54.376 236.8 3.1 237 13.3
2007-06-15 12:17:37 51°17.08 2°54.308 237.3 3.1 235 13.1
2007-06-15 12:18:37 51°17.052 2°54.238 237.9 3.2 235 13.3
2007-06-15 12:19:37 51°17.025 2°54.164 242.4 3.2 244 13.4
2007-06-15 12:20:37 51°17.015 2°54.082 259 2.8 275 13.3
2007-06-15 12:21:37 51°17.044 2°54.033 298.3 2.9 338 13.3
2007-06-15 12:22:37 51°17.097 2°54.029 339.1 3.5 10 11.5
2007-06-15 12:23:37 51°17.151 2°54.061 2.8 3.3 27 10.9
2007-06-15 12:24:37 51°17.197 2°54.098 358.3 2.9 28 10.4
2007-06-15 12:25:37 51°17.254 2°54.15 29 5.3 40 10.5
2007-06-15 12:26:37 51°17.3 2°54.246 66 4 58 10.7
2007-06-15 12:27:37 51°17.332 2°54.328 72.5 3.3 63 10.8
2007-06-15 12:28:37 51°17.36 2°54.401 72.1 3.1 63 10.5
2007-06-15 12:29:37 51°17.387 2°54.464 70.4 2.9 48 10.7
2007-06-15 12:30:37 51°17.414 2°54.546 86.3 4 72 10.5
2007-06-15 12:31:37 51°17.419 2°54.655 121.8 4.2 97 10.3
2007-06-15 12:32:37 51°17.406 2°54.762 130 4.2 96 10.2
2007-06-15 12:33:37 51°17.403 2°54.873 113.5 4.4 87 10
2007-06-15 12:34:37 51°17.418 2°54.982 94.4 4.3 69 10.1
2007-06-15 12:35:37 51°17.443 2°55.083 83.9 4 66 10
2007-06-15 12:36:37 51°17.47 2°55.173 85.3 3.8 60 10.2
2007-06-15 12:37:37 51°17.495 2°55.257 88 3.3 67 10
2007-06-15 12:38:37 51°17.519 2°55.336 90.8 3.3 64 9.9
2007-06-15 12:39:37 51°17.543 2°55.413 93.3 3.3 61 9.9
2007-06-15 12:40:37 51°17.566 2°55.488 92 3.1 66 9.7
2007-06-15 12:41:37 51°17.591 2°55.563 90.9 3.2 61 9.7
2007-06-15 12:42:37 51°17.616 2°55.636 90.7 3.2 60 9.9
2007-06-15 12:43:37 51°17.641 2°55.71 90 3.1 62 9.4
2007-06-15 12:44:37 51°17.665 2°55.785 88.2 3.1 69 9.6
2007-06-15 12:45:37 51°17.69 2°55.862 81.2 3.2 64 9.1
2007-06-15 12:46:37 51°17.717 2°55.936 75 3.3 60 9.7
2007-06-15 12:47:37 51°17.746 2°56.008 69.7 3.2 59 9.7
2007-06-15 12:48:37 51°17.775 2°56.078 68.5 3.2 54 9.5
2007-06-15 12:49:37 51°17.805 2°56.147 68 3.2 62 9.1
2007-06-15 12:50:37 51°17.835 2°56.216 68 3.2 51 9.3
2007-06-15 12:51:37 51°17.864 2°56.285 67.1 3.2 55 9.6
2007-06-15 12:52:37 51°17.893 2°56.353 66.7 3.1 58 9.4
2007-06-15 12:53:37 51°17.92 2°56.421 79.5 3 63 9.3
2007-06-15 12:54:37 51°17.939 2°56.496 109.5 3 78 9.3
2007-06-15 12:55:37 51°17.945 2°56.575 131.8 3 90 10.2
2007-06-15 12:56:37 51°17.939 2°56.653 145 2.9 101 11.4
2007-06-15 12:57:37 51°17.924 2°56.724 155.4 2.7 116 11.8
2007-06-15 12:58:37 51°17.903 2°56.799 147.6 3.4 112 12
2007-06-15 12:59:37 51°17.886 2°56.889 133.7 3.7 102 12.3
2007-06-15 13:00:37 51°17.878 2°56.982 128 3.3 98 12.4
2007-06-15 13:01:37 51°17.873 2°57.068 132.3 3.2 95 12.6
2007-06-15 13:02:37 51°17.866 2°57.149 139.6 3 96 12.8
2007-06-15 13:03:37 51°17.86 2°57.226 131.2 3.1 92 12.8
2007-06-15 13:04:37 51°17.854 2°57.294 160 2.1 107 13
2007-06-15 13:05:36 51°17.807 2°57.303 208.8 4.2 207 13.3
2007-06-15 13:06:37 51°17.77 2°57.223 249.5 2.2 252 12.8
2007-06-15 13:07:36 51°17.772 2°57.188 256.2 0.9 293 12.9
2007-06-15 13:08:36 51°17.782 2°57.175 263.9 0.5 339 12.9
2007-06-15 13:09:36 51°17.797 2°57.175 268 1.4 10 13
2007-06-15 13:10:36 51°17.813 2°57.185 270.7 1.2 27 13
2007-06-15 13:11:37 51°17.824 2°57.17 259.8 2.7 266 12.8
2007-06-15 13:12:36 51°17.767 2°57.072 225.2 8.2 221 12.9
2007-06-15 13:13:36 51°17.628 2°56.904 219.9 11.1 215 12.6
2007-06-15 13:14:36 51°17.467 2°56.759 212.7 11.3 203 12.5
2007-06-15 13:15:36 51°17.29 2°56.65 204.5 11.8 196 12.1
2007-06-15 13:16:36 51°17.101 2°56.584 197.4 11.9 185 12.1
2007-06-15 13:17:36 51°16.908 2°56.554 198.8 11.2 200 12.1
2007-06-15 13:18:36 51°16.745 2°56.418 219.1 11.4 219 12.4
2007-06-15 13:19:37 51°16.606 2°56.214 229.2 11 221 12.5
2007-06-15 13:20:36 51°16.473 2°56.01 226.9 11.4 224 12.8
2007-06-15 13:21:37 51°16.332 2°55.802 229.3 11.2 219 12.7
2007-06-15 13:22:37 51°16.196 2°55.596 227.6 11.4 224 12.7
2007-06-15 13:23:36 51°16.062 2°55.393 227.9 11.3 223 12.5
2007-06-15 13:24:37 51°15.912 2°55.196 220.6 11.7 213 12.3
2007-06-15 13:25:36 51°15.756 2°55.029 217.3 11.7 217 12.1
2007-06-15 13:26:36 51°15.589 2°54.874 214.9 11.3 205 12
2007-06-15 13:27:37 51°15.414 2°54.722 214.1 11.7 212 11.5
2007-06-15 13:28:37 51°15.239 2°54.573 211.2 11.8 210 11.2
2007-06-15 13:29:37 51°15.061 2°54.435 210.4 12.1 207 10.9
2007-06-15 13:30:37 51°14.883 2°54.296 210.7 11.9 211 11.6
2007-06-15 13:31:36 51°14.71 2°54.165 211.2 12 204 12.5
2007-06-15 13:32:37 51°14.529 2°54.023 211 11.9 206 13.9
2007-06-15 13:33:37 51°14.368 2°53.849 220.8 11.8 215 12.3
2007-06-15 13:34:36 51°14.213 2°53.665 220 12 216 12
2007-06-15 13:35:37 51°14.06 2°53.463 223.8 11.7 222 11.9
2007-06-15 13:36:36 51°13.915 2°53.266 226.6 11.2 215 12.1
2007-06-15 13:37:36 51°13.768 2°53.064 225.5 11.4 218 12
2007-06-15 13:38:37 51°13.635 2°52.832 232.2 11.7 231 11.8
2007-06-15 13:39:37 51°13.511 2°52.596 234.9 11.5 234 11.9
2007-06-15 13:40:37 51°13.407 2°52.351 239.4 9.5 236 11.9
2007-06-15 13:41:36 51°13.346 2°52.203 240.5 4.9 240 12.2
2007-06-15 13:42:36 51°13.321 2°52.122 250.9 2.5 254 12.1
2007-06-15 13:43:36 51°13.31 2°52.07 248.7 2.1 239 12.1
2007-06-15 13:44:36 51°13.285 2°52.009 240.6 3.1 239 12
2007-06-15 13:45:36 51°13.253 2°51.934 240.3 3.4 237 12
2007-06-15 13:46:36 51°13.229 2°51.857 246 2.9 236 12
2007-06-15 13:47:36 51°13.198 2°51.799 232.6 2.8 223 12
2007-06-15 13:48:36 51°13.169 2°51.743 239.2 2.7 232 12
2007-06-15 13:49:36 51°13.147 2°51.682 244.2 2.7 240 12
2007-06-15 13:50:37 51°13.124 2°51.62 242.2 2.7 242 12
2007-06-15 13:51:37 51°13.096 2°51.565 233.7 2.7 222 11.9
2007-06-15 13:52:37 51°13.062 2°51.516 229.7 2.8 216 12
2007-06-15 13:53:37 51°13.034 2°51.46 242.9 2.7 235 11.9
2007-06-15 13:54:37 51°13.017 2°51.396 246 2.6 241 11.9
2007-06-15 13:55:37 51°12.993 2°51.336 238.9 2.7 239 12
2007-06-15 13:56:37 51°12.969 2°51.275 243.1 2.8 235 11.8
2007-06-15 13:57:37 51°12.942 2°51.213 237.9 3 221 11.7
2007-06-15 13:58:37 51°12.906 2°51.154 226.4 3.2 220 11.8
2007-06-15 13:59:37 51°12.863 2°51.098 230.9 3.3 225 11.7
2007-06-15 14:00:37 51°12.831 2°51.026 240 3.4 236 11.7
2007-06-15 14:01:37 51°12.798 2°50.953 240.2 3.4 229 11.7
2007-06-15 14:02:37 51°12.775 2°50.872 250.8 3.3 249 11.6
2007-06-15 14:03:37 51°12.747 2°50.796 237.9 3.3 233 11.7
2007-06-15 14:04:37 51°12.718 2°50.719 244.6 3.3 242 11.7
2007-06-15 14:05:37 51°12.691 2°50.642 242.3 3.3 234 11.5
2007-06-15 14:06:37 51°12.658 2°50.569 237.8 3.4 240 11.6
2007-06-15 14:07:37 51°12.629 2°50.492 244.5 3.5 250 11.5
2007-06-15 14:08:37 51°12.6 2°50.414 240.3 3.4 234 11.5
2007-06-15 14:09:37 51°12.568 2°50.34 240.8 3.3 239 11.4
2007-06-15 14:10:37 51°12.537 2°50.265 239.3 3.4 239 11.4
2007-06-15 14:11:37 51°12.504 2°50.193 236.6 3.4 231 11.3
2007-06-15 14:12:37 51°12.466 2°50.126 232.3 3.5 229 11.4
2007-06-15 14:13:37 51°12.43 2°50.058 240.9 3.3 239 11.3
2007-06-15 14:14:37 51°12.426 2°49.975 271.9 3.3 277 11.3
2007-06-15 14:15:37 51°12.441 2°49.893 292.9 3.3 306 11.2
2007-06-15 14:16:37 51°12.497 2°49.862 344.7 3.7 358 11.4
2007-06-15 14:17:37 51°12.545 2°49.896 36.7 3.1 44 11.5
2007-06-15 14:18:37 51°12.581 2°49.964 52.2 4.5 49 11.5
2007-06-15 14:19:37 51°12.654 2°50.053 33.9 4.9 34 11.7
2007-06-15 14:20:37 51°12.703 2°50.09 10.8 2.7 21 12.1
2007-06-15 14:21:37 51°12.74 2°50.117 9.2 2.2 24 12.3
2007-06-15 14:22:37 51°12.771 2°50.144 9.6 2 32 12.3
2007-06-15 14:23:37 51°12.798 2°50.169 6.9 1.8 36 12.4
2007-06-15 14:24:37 51°12.853 2°50.199 10 6.7 16 12.6
2007-06-15 14:25:37 51°12.967 2°50.319 48 7.3 50 13.1
2007-06-15 14:26:37 51°13.003 2°50.448 82.9 4.3 76 13
2007-06-15 14:27:37 51°13.007 2°50.543 104.2 3.1 93 12.7
2007-06-15 14:28:37 51°13.001 2°50.615 117.5 2.4 103 12.5
2007-06-15 14:29:37 51°12.994 2°50.672 125.7 2 106 12.3
2007-06-15 14:30:37 51°12.989 2°50.721 126.2 1.7 103 12.1
2007-06-15 14:31:37 51°12.987 2°50.774 113.9 2.5 98 12
2007-06-15 14:32:37 51°13.026 2°50.881 48.7 6.2 50 12
2007-06-15 14:33:37 51°13.133 2°51.099 57.3 13.2 54 12.1
2007-06-15 14:34:37 51°13.268 2°51.396 57.4 13.9 55 11.8
2007-06-15 14:35:37 51°13.404 2°51.695 57.8 14 55 12
2007-06-15 14:36:37 51°13.542 2°51.993 57.3 13.9 54 12
2007-06-15 14:37:37 51°13.681 2°52.292 56.9 14.2 53 12.1
2007-06-15 14:38:37 51°13.82 2°52.593 57.1 14 55 12
2007-06-15 14:39:37 51°13.959 2°52.889 57.6 14 53 12
2007-06-15 14:40:37 51°14.098 2°53.189 59.3 14 56 11.6
2007-06-15 14:41:37 51°14.217 2°53.505 68.2 13.9 65 11.3
2007-06-15 14:42:36 51°14.312 2°53.833 70.4 13.9 65 11.2
2007-06-15 14:43:37 51°14.389 2°54.189 80.3 14 74 10.7
2007-06-15 14:44:36 51°14.421 2°54.551 89.4 14 90 12.3
2007-06-15 14:45:36 51°14.395 2°54.91 106.8 12.8 108 12.2
2007-06-15 14:46:36 51°14.293 2°55.201 130.5 11.7 129 12.4
2007-06-15 14:47:36 51°14.18 2°55.365 147.7 7.3 143 12.7
2007-06-15 14:48:37 51°14.09 2°55.447 158.5 5.5 155 12.6
2007-06-15 14:49:37 51°13.989 2°55.519 158.9 8.1 156 12.6
2007-06-15 14:50:37 51°13.872 2°55.602 158.3 7.5 155 12.6
2007-06-15 14:51:36 51°13.77 2°55.699 147.8 7.2 143 12.6
2007-06-15 14:52:36 51°13.686 2°55.837 132.8 7.2 128 12.5
2007-06-15 14:53:36 51°13.638 2°55.956 123.5 4.4 120 -999
2007-06-15 14:54:36 51°13.61 2°56.046 113.1 3.2 110 -999
2007-06-15 14:55:36 51°13.599 2°56.091 119.7 0.7 112 -999
2007-06-15 14:56:36 51°13.597 2°56.095 124.1 0.2 93 -999